createdAt,value
2023-02-19T08:31:31.652Z,9.40
2023-02-19T08:34:00.260Z,9.50
2023-02-19T08:36:28.947Z,9.50
2023-02-19T08:38:57.581Z,9.60
2023-02-19T08:41:26.271Z,9.50
2023-02-19T08:43:54.899Z,9.50
2023-02-19T08:46:23.993Z,9.50
2023-02-19T09:41:52.246Z,9.80
2023-02-19T09:44:28.402Z,9.80
2023-02-19T09:46:57.443Z,9.90
2023-02-19T09:49:30.328Z,9.90
2023-02-19T09:52:02.365Z,9.90
2023-02-19T09:54:33.362Z,9.90
2023-02-19T09:57:05.085Z,9.90
2023-02-19T09:59:41.281Z,9.90
2023-02-19T10:02:16.600Z,10.00
2023-02-19T10:04:46.170Z,10.00
2023-02-19T10:07:15.753Z,10.10
2023-02-19T10:09:49.879Z,10.20
2023-02-19T10:12:24.621Z,10.20
2023-02-19T10:14:57.598Z,10.20
2023-02-19T10:17:28.143Z,10.30
2023-02-19T10:19:58.201Z,10.40
2023-02-19T10:22:27.109Z,10.40
2023-02-19T10:24:57.706Z,10.50
2023-02-19T10:27:31.519Z,10.50
2023-02-19T10:30:01.847Z,10.60
2023-02-19T10:32:30.494Z,10.60
2023-02-19T10:35:14.852Z,10.60
2023-02-19T10:37:45.734Z,10.60
2023-02-19T10:40:17.951Z,10.60
2023-02-19T10:42:49.838Z,10.60
2023-02-19T10:45:22.618Z,10.70
2023-02-19T10:47:52.384Z,10.80
2023-02-19T10:50:27.320Z,10.70
2023-02-19T10:52:58.429Z,10.80
2023-02-19T10:55:33.250Z,10.70
2023-02-19T10:58:25.197Z,10.70
2023-02-19T11:01:13.670Z,10.80
2023-02-19T11:03:42.869Z,10.70
2023-02-19T11:06:13.282Z,10.70
2023-02-19T11:08:54.226Z,10.70
2023-02-19T11:11:28.657Z,10.70
2023-02-19T11:14:00.399Z,10.70
2023-02-19T11:16:43.899Z,10.70
2023-02-19T11:19:36.545Z,10.70
2023-02-19T11:22:29.990Z,10.80
2023-02-19T11:25:04.310Z,10.70
2023-02-19T11:27:33.973Z,10.60
2023-02-19T11:30:35.797Z,10.60
2023-02-19T11:33:28.759Z,10.60
2023-02-19T11:36:17.974Z,10.60
2023-02-19T11:38:46.613Z,10.70
2023-02-19T11:41:23.908Z,10.70
2023-02-19T11:44:13.732Z,10.60
2023-02-19T11:46:52.478Z,10.60
2023-02-19T11:49:38.605Z,10.70
2023-02-19T11:52:19.845Z,10.70
2023-02-19T11:54:52.827Z,10.80
2023-02-19T11:57:39.466Z,10.80
2023-02-19T12:00:26.017Z,10.90
2023-02-19T12:03:31.233Z,10.90
2023-02-19T12:06:14.166Z,11.00
2023-02-19T12:09:13.510Z,11.10
2023-02-19T12:12:08.599Z,11.30
2023-02-19T12:15:06.124Z,11.80
2023-02-19T12:17:53.424Z,12.70
2023-02-19T12:20:31.799Z,12.40
2023-02-19T12:23:20.709Z,12.00
2023-02-19T12:25:59.079Z,11.90
2023-02-19T12:28:53.705Z,11.80
2023-02-19T12:31:51.111Z,11.80
2023-02-19T12:34:58.929Z,11.80
2023-02-19T12:37:42.611Z,11.70
2023-02-19T12:40:24.298Z,11.70
2023-02-19T12:43:04.847Z,11.60
2023-02-19T12:45:38.962Z,11.60
2023-02-19T12:48:14.487Z,11.60
2023-02-19T12:50:45.080Z,11.60
2023-02-19T12:53:24.130Z,11.50
2023-02-19T12:55:53.891Z,11.50
2023-02-19T12:58:29.425Z,11.60
2023-02-19T13:01:00.037Z,11.60
2023-02-19T13:03:35.231Z,11.60
2023-02-19T13:06:10.504Z,11.50
2023-02-19T13:09:05.296Z,11.40
2023-02-19T13:11:38.732Z,11.30
2023-02-19T13:14:17.650Z,11.30
2023-02-19T13:16:50.126Z,11.30
2023-02-19T13:19:18.892Z,11.20
2023-02-19T13:22:10.215Z,11.20
2023-02-19T13:24:44.416Z,11.40
2023-02-19T13:27:34.818Z,11.40
2023-02-19T13:30:27.578Z,11.60
2023-02-19T13:33:04.535Z,11.70
2023-02-19T13:36:06.378Z,11.60
2023-02-19T13:38:38.973Z,11.70
2023-02-19T13:41:20.096Z,11.70
2023-02-19T13:44:00.032Z,11.70
2023-02-19T13:46:37.124Z,11.70
2023-02-19T13:49:44.945Z,11.70
2023-02-19T13:52:43.927Z,11.60
2023-02-19T13:55:52.139Z,11.60
2023-02-19T13:58:55.202Z,11.50
2023-02-19T14:02:13.650Z,11.60
2023-02-19T14:04:50.353Z,11.50
2023-02-19T14:07:38.578Z,11.40
2023-02-19T14:10:13.045Z,11.30
2023-02-19T14:12:41.763Z,11.30
2023-02-19T14:15:51.341Z,11.20
2023-02-19T14:18:45.685Z,11.20
2023-02-19T14:21:18.686Z,11.10
2023-02-19T14:23:53.755Z,11.20
2023-02-19T14:26:23.309Z,11.10
2023-02-19T14:28:54.123Z,11.10
2023-02-19T14:31:32.818Z,11.10
2023-02-19T14:34:04.478Z,11.10
2023-02-19T14:36:44.271Z,11.20
2023-02-19T14:39:17.645Z,11.10
2023-02-19T14:41:50.145Z,11.10
2023-02-19T14:44:23.466Z,11.10
2023-02-19T14:46:59.170Z,11.10
2023-02-19T14:49:32.084Z,11.00
2023-02-19T14:52:04.448Z,11.00
2023-02-19T14:54:42.526Z,10.90
2023-02-19T14:57:18.450Z,10.80
2023-02-19T14:59:58.708Z,10.70
2023-02-19T15:02:29.980Z,10.60
2023-02-19T15:04:59.398Z,10.60
2023-02-19T15:07:31.384Z,10.60
2023-02-19T15:10:05.481Z,10.60
2023-02-19T15:12:37.427Z,10.50
2023-02-19T15:15:07.844Z,10.40
2023-02-19T15:17:41.846Z,10.30
2023-02-19T15:20:17.721Z,10.30
2023-02-19T15:22:47.401Z,10.20
2023-02-19T15:25:19.962Z,10.20
2023-02-19T15:27:49.041Z,10.10
2023-02-19T15:30:23.056Z,10.20
2023-02-19T15:32:58.098Z,10.30
2023-02-19T15:35:27.880Z,10.40
2023-02-19T15:37:56.887Z,10.30
2023-02-19T15:40:32.588Z,10.00
2023-02-19T15:43:02.433Z,10.00
2023-02-19T15:45:37.805Z,9.90
2023-02-19T15:48:09.873Z,9.90
2023-02-19T15:50:44.211Z,9.90
2023-02-19T15:53:17.370Z,9.90
2023-02-19T15:55:50.433Z,9.90
2023-02-19T15:58:28.977Z,9.90
2023-02-19T16:01:00.302Z,9.80
2023-02-19T16:03:32.199Z,10.00
2023-02-19T16:06:02.445Z,9.90
2023-02-19T16:08:32.860Z,9.80
2023-02-19T16:11:02.704Z,9.80
2023-02-19T16:13:33.961Z,9.70
2023-02-19T16:16:14.302Z,9.90
2023-02-19T16:18:48.976Z,10.00
2023-02-19T16:21:21.695Z,10.10
2023-02-19T16:23:55.006Z,10.10
2023-02-19T16:26:24.094Z,10.10
2023-02-19T16:28:54.488Z,10.00
2023-02-19T16:31:25.205Z,10.00
2023-02-19T16:33:55.226Z,10.10
2023-02-19T16:36:37.188Z,10.00
2023-02-19T16:39:20.680Z,10.00
2023-02-19T16:42:19.712Z,10.00
2023-02-19T16:44:49.652Z,10.00
2023-02-19T16:47:35.970Z,10.00
2023-02-19T16:50:13.677Z,10.00
2023-02-19T16:52:52.934Z,9.80
2023-02-19T16:55:21.713Z,9.90
2023-02-19T16:57:50.807Z,9.80
2023-02-19T17:00:20.923Z,9.80
2023-02-19T17:02:50.816Z,9.80
2023-02-19T17:05:22.658Z,9.80
2023-02-19T17:07:51.631Z,9.80
2023-02-19T17:10:23.067Z,9.90
2023-02-19T17:12:51.774Z,10.00
2023-02-19T17:15:20.490Z,10.00
2023-02-19T17:17:49.441Z,9.90
2023-02-19T17:20:27.714Z,9.90
2023-02-19T17:22:56.482Z,10.00
2023-02-19T17:25:25.369Z,10.00
2023-02-19T17:27:54.033Z,10.10
2023-02-19T17:30:28.291Z,10.10
2023-02-19T17:32:57.023Z,10.00
2023-02-19T17:35:27.259Z,10.10
2023-02-19T17:37:55.997Z,10.10
2023-02-19T17:40:33.110Z,10.10
2023-02-19T17:43:02.536Z,10.10
2023-02-19T17:45:31.170Z,10.10
2023-02-19T17:48:00.165Z,10.00
2023-02-19T17:50:31.588Z,10.00
2023-02-19T17:53:00.252Z,10.10
2023-02-19T17:55:28.815Z,10.10
2023-02-19T17:57:57.571Z,10.20
2023-02-19T18:00:29.121Z,10.20
2023-02-19T18:02:58.050Z,10.20
2023-02-19T18:05:26.627Z,10.30
